FW4805 Andros Island GR current weather conditions

sailwx.info

Wind from 112 at 6 knots gusting 6

Air temperature 30.0° C
Dewpoint 18.7° C

Last reported at 2020-Aug-06 10:04 UTC.
Time now 2020-Aug-06 10:56 UTC

Location: N 37°50' E 024°56'.
View on Google Maps.

See reports from other nearby stations

  
Tides and Currents Weather Stations Pressure Air Temp Water Temp Dewpoint Dewpoint Depression Visibility Wind Speed Wind Dir Waves Ship Positions
date/time (UTC)wind fromknots sea level pressurealtimeterstation pressurevisibilityair tempwater tempwave heightnotes
2020-Aug-06 10:04 112 6 gusting 6 30.0
2020-Aug-06 09:59 099 6 gusting 6 30.0
2020-Aug-06 09:54 074 5 gusting 6 30.0
2020-Aug-06 09:49 090 6 gusting 7 30.6
2020-Aug-06 09:44 115 6 gusting 7 30.6
2020-Aug-06 09:39 096 5 gusting 7 30.6
2020-Aug-06 09:34 096 6 gusting 8 30.6
2020-Aug-06 09:29 107 6 gusting 8 30.0
2020-Aug-06 09:24 101 6 gusting 7 30.0
2020-Aug-06 09:19 100 6 gusting 6 30.0
2020-Aug-06 09:14 101 6 gusting 6 30.0
2020-Aug-06 09:09 104 6 gusting 6 30.0
2020-Aug-06 09:04 108 5 gusting 6 30.0
2020-Aug-06 08:59 115 4 gusting 6 30.6
2020-Aug-06 08:54 095 4 gusting 6 30.6
2020-Aug-06 08:49 091 5 gusting 6 30.0
2020-Aug-06 08:44 079 5 gusting 6 30.0
2020-Aug-06 08:39 061 5 gusting 6 30.0
2020-Aug-06 08:34 076 5 gusting 6 30.0
2020-Aug-06 08:29 090 5 gusting 6 30.0
2020-Aug-06 08:24 092 6 gusting 6 30.0
2020-Aug-06 08:19 102 5 gusting 6 29.4
2020-Aug-06 08:14 099 5 gusting 6 29.4
2020-Aug-06 08:09 084 5 gusting 6 29.4
2020-Aug-06 08:04 064 6 gusting 6 29.4
2020-Aug-06 07:54 084 5 gusting 6 29.4
2020-Aug-06 07:50 087 5 gusting 6 29.4
2020-Aug-06 07:44 093 4 gusting 6 29.4
2020-Aug-06 07:39 077 4 gusting 5 28.9
2020-Aug-06 07:34 086 4 gusting 5 28.9
2020-Aug-06 07:29 090 4 gusting 6 28.9
2020-Aug-06 07:24 066 4 gusting 6 28.9
2020-Aug-06 07:19 057 3 gusting 4 28.9
2020-Aug-06 07:14 081 3 gusting 4 28.3
2020-Aug-06 07:09 107 3 gusting 4 28.3
2020-Aug-06 07:04 121 4 gusting 5 28.3
2020-Aug-06 06:59 122 4 gusting 5 27.8
2020-Aug-06 06:54 112 3 gusting 4 27.8
2020-Aug-06 06:49 122 3 gusting 4 27.8
2020-Aug-06 06:45 122 3 gusting 4 27.8
2020-Aug-06 06:39 119 3 gusting 3 27.8
2020-Aug-06 06:34 145 3 gusting 4 27.8
2020-Aug-06 06:29 148 3 gusting 4 27.8
2020-Aug-06 06:24 151 2 gusting 3 27.8
2020-Aug-06 06:19 148 2 gusting 3 27.8
2020-Aug-06 06:14 125 3 gusting 6 27.8
2020-Aug-06 06:09 114 4 gusting 6 27.8
2020-Aug-06 06:04 120 4 gusting 6 27.2
2020-Aug-06 05:59 133 4 gusting 6 27.2
2020-Aug-06 05:54 139 3 gusting 6 27.2
2020-Aug-06 05:49 134 2 gusting 4 27.2
2020-Aug-06 05:44 127 1 gusting 3 27.2
2020-Aug-06 05:39 137 0 gusting 2 27.2
2020-Aug-06 05:34 155 0 gusting 1 26.7
2020-Aug-06 05:29 106 0 gusting 1 26.7
2020-Aug-06 05:24 063 0 gusting 1 26.1
2020-Aug-06 05:19 045 26.1
2020-Aug-06 05:14 25.6
2020-Aug-06 05:09 25.0
2020-Aug-06 05:04 25.0
2020-Aug-06 04:59 225 24.4
2020-Aug-06 04:54 225 23.9
2020-Aug-06 04:49 270 23.9
2020-Aug-06 04:44 270 22.8
2020-Aug-06 04:39 270 22.8
2020-Aug-06 04:34 22.2
2020-Aug-06 04:29 181 22.2
2020-Aug-06 04:24 192 22.2
2020-Aug-06 04:19 270 21.7
2020-Aug-06 04:14 300 21.7
2020-Aug-06 04:09 284 0 gusting 1 21.1
2020-Aug-06 04:04 270 0 gusting 1 20.6
2020-Aug-06 04:00 276 20.6
2020-Aug-06 03:54 270 20.6
2020-Aug-06 03:49 270 20.6
2020-Aug-06 03:44 266 0 gusting 1 20.6
2020-Aug-06 03:39 269 0 gusting 1 20.6
2020-Aug-06 03:34 280 20.6
2020-Aug-06 03:29 275 0 gusting 1 20.6
2020-Aug-06 03:24 270 0 gusting 1 20.6
2020-Aug-06 03:19 270 1 gusting 1 20.6
2020-Aug-06 03:14 270 0 gusting 1 20.6
2020-Aug-06 03:09 251 20.6
2020-Aug-06 03:04 248 21.1
2020-Aug-06 02:59 270 21.1
2020-Aug-06 02:55 287 0 gusting 1 21.1
2020-Aug-06 02:49 295 0 gusting 1 21.1
2020-Aug-06 02:44 286 0 gusting 1 21.1
2020-Aug-06 02:39 264 0 gusting 1 21.1
2020-Aug-06 02:34 260 0 gusting 1 21.1
2020-Aug-06 02:29 250 0 gusting 1 21.1
2020-Aug-06 02:24 267 0 gusting 1 21.1
2020-Aug-06 02:19 265 0 gusting 1 20.6
2020-Aug-06 02:14 244 0 gusting 1 21.1
2020-Aug-06 02:09 258 1 gusting 1 21.1
2020-Aug-06 02:04 258 1 gusting 1 21.1
2020-Aug-06 01:59 257 0 gusting 1 21.1
2020-Aug-06 01:54 258 0 gusting 1 20.6
2020-Aug-06 01:49 254 0 gusting 1 21.1
2020-Aug-06 01:44 302 0 gusting 1 21.1
2020-Aug-06 01:39 281 0 gusting 1 20.6
2020-Aug-06 01:34 269 0 gusting 1 20.6
2020-Aug-06 01:29 270 0 gusting 1 20.6
2020-Aug-06 01:24 270 20.6
2020-Aug-06 01:19 270 21.1
2020-Aug-06 01:14 270 21.1
2020-Aug-06 01:09 270 21.1
2020-Aug-06 01:04 270 0 gusting 1 21.1
2020-Aug-06 00:59 262 0 gusting 2 21.1
2020-Aug-06 00:54 260 1 gusting 3 21.1
2020-Aug-06 00:49 248 1 gusting 3 20.6
2020-Aug-06 00:44 232 0 gusting 1 20.6
2020-Aug-06 00:39 270 0 gusting 1 20.6
2020-Aug-06 00:34 262 0 gusting 1 20.6
2020-Aug-06 00:29 249 20.6
2020-Aug-06 00:24 270 20.6
2020-Aug-06 00:19 270 20.6
2020-Aug-06 00:14 270 20.6
2020-Aug-06 00:09 270 0 gusting 1 20.6
2020-Aug-06 00:04 270 0 gusting 1 20.6
2020-Aug-05 23:59 259 21.1
2020-Aug-05 23:54 302 0 gusting 1 21.1
2020-Aug-05 23:49 307 0 gusting 1 21.1
2020-Aug-05 23:44 270 21.1
2020-Aug-05 23:39 270 21.1
2020-Aug-05 23:34 270 21.1
2020-Aug-05 23:29 270 21.1
2020-Aug-05 23:24 270 21.1
2020-Aug-05 23:19 270 21.1
2020-Aug-05 23:14 225 21.1
2020-Aug-05 23:09 225 21.1
2020-Aug-05 23:04 270 21.1
2020-Aug-05 22:59 270 21.1
2020-Aug-05 22:54 21.7
2020-Aug-05 22:49 314 21.7
2020-Aug-05 22:44 292 21.1
2020-Aug-05 22:39 270 21.1
2020-Aug-05 22:34 270 21.1
2020-Aug-05 22:29 21.1
2020-Aug-05 22:24 270 21.1
2020-Aug-05 22:19 260 21.1
2020-Aug-05 22:14 257 21.1
2020-Aug-05 22:09 267 21.7
2020-Aug-05 22:04 270 21.7
2020-Aug-05 22:00 270 21.7
2020-Aug-05 21:54 282 0 gusting 1 21.7
2020-Aug-05 21:49 286 21.1
2020-Aug-05 21:44 270 21.1
2020-Aug-05 21:39 270 21.7
2020-Aug-05 21:34 21.7
2020-Aug-05 21:29 270 21.7
2020-Aug-05 21:24 270 21.7
2020-Aug-05 21:19 270 21.7
2020-Aug-05 21:14 21.7
2020-Aug-05 21:09 21.7
2020-Aug-05 21:04 21.7
2020-Aug-05 20:59 21.7
2020-Aug-05 20:54 21.7
2020-Aug-05 20:49 21.7
2020-Aug-05 20:44 21.7
2020-Aug-05 20:39 22.2
2020-Aug-05 20:34 22.2
2020-Aug-05 20:29 301 22.2
2020-Aug-05 20:24 301 22.2
2020-Aug-05 20:19 225 22.2
2020-Aug-05 20:14 245 22.2
2020-Aug-05 20:09 270 22.2
2020-Aug-05 20:04 270 22.2
2020-Aug-05 19:59 270 22.2
2020-Aug-05 19:54 258 22.2
2020-Aug-05 19:49 263 22.2
2020-Aug-05 19:44 270 0 gusting 1 22.2
2020-Aug-05 19:39 270 22.8
2020-Aug-05 19:34 22.8
2020-Aug-05 19:29 22.2
2020-Aug-05 19:24 22.2
2020-Aug-05 19:19 22.8
2020-Aug-05 19:14 270 22.8
2020-Aug-05 19:09 270 22.8
2020-Aug-05 19:04 270 22.8
2020-Aug-05 18:59 270 22.8
2020-Aug-05 18:54 270 22.8
2020-Aug-05 18:49 270 23.3
2020-Aug-05 18:44 23.3
2020-Aug-05 18:39 256 23.3
2020-Aug-05 18:34 219 23.3
2020-Aug-05 18:29 181 23.9
2020-Aug-05 18:24 23.3
2020-Aug-05 18:19 23.9
2020-Aug-05 18:14 23.9
2020-Aug-05 18:09 24.4
2020-Aug-05 18:04 24.4
2020-Aug-05 17:59 24.4
2020-Aug-05 17:54 24.4
2020-Aug-05 17:49 24.4
2020-Aug-05 17:44 25.0
2020-Aug-05 17:39 270 25.0
2020-Aug-05 17:34 270 25.6
2020-Aug-05 17:29 270 25.6
2020-Aug-05 17:24 26.1
2020-Aug-05 17:19 325 26.7
2020-Aug-05 17:14 094 0 gusting 3 26.7
2020-Aug-05 17:09 204 1 gusting 3 26.7
2020-Aug-05 17:04 240 1 gusting 1 26.1
2020-Aug-05 16:59 225 1 gusting 3 26.7
2020-Aug-05 16:54 211 1 gusting 3 26.7
2020-Aug-05 16:49 201 1 gusting 2 26.7
2020-Aug-05 16:44 163 2 gusting 6 27.2
2020-Aug-05 16:39 150 2 gusting 6 27.2
2020-Aug-05 16:34 149 2 gusting 6 27.2
2020-Aug-05 16:29 153 3 gusting 6 27.2
2020-Aug-05 16:24 150 4 gusting 6 27.8
2020-Aug-05 16:19 161 2 gusting 5 27.8
2020-Aug-05 16:15 252 1 gusting 3 28.3
2020-Aug-05 16:09 316 2 gusting 3 28.3
2020-Aug-05 16:04 003 4 gusting 8 27.8
2020-Aug-05 15:59 035 6 gusting 11 27.8
2020-Aug-05 15:54 056 8 gusting 11 27.8
2020-Aug-05 15:49 059 9 gusting 13 27.8
2020-Aug-05 15:44 057 9 gusting 13 27.8
2020-Aug-05 15:39 074 8 gusting 12 27.8
2020-Aug-05 15:34 071 8 gusting 11 27.8
2020-Aug-05 15:29 071 8 gusting 10 27.8
2020-Aug-05 15:24 086 9 gusting 11 27.8
2020-Aug-05 15:19 083 8 gusting 11 27.8
2020-Aug-05 15:15 083 7 gusting 9 27.8
2020-Aug-05 15:09 084 6 gusting 9 27.8
2020-Aug-05 15:04 076 6 gusting 9 27.8
2020-Aug-05 14:59 063 7 gusting 9 27.8
2020-Aug-05 14:54 065 8 gusting 9 27.8
2020-Aug-05 14:49 085 9 gusting 13 27.8
2020-Aug-05 14:44 081 11 gusting 18 28.3
2020-Aug-05 14:39 082 11 gusting 18 28.3
2020-Aug-05 14:34 084 10 gusting 13 28.3
2020-Aug-05 14:29 075 11 gusting 15 28.3
2020-Aug-05 14:24 079 10 gusting 15 28.3
2020-Aug-05 14:19 074 10 gusting 13 28.3
2020-Aug-05 14:14 072 10 gusting 13 28.9
2020-Aug-05 14:09 079 9 gusting 12 28.9
2020-Aug-05 14:04 083 10 gusting 14 28.3
2020-Aug-05 13:59 097 10 gusting 14 28.9
2020-Aug-05 13:54 097 9 gusting 14 28.9
2020-Aug-05 13:49 083 8 gusting 13 28.3
2020-Aug-05 13:44 082 10 gusting 17 28.3
2020-Aug-05 13:39 105 13 gusting 18 28.3
2020-Aug-05 13:34 100 11 gusting 18 28.3
2020-Aug-05 13:29 078 9 gusting 13 28.3
2020-Aug-05 13:24 049 10 gusting 14 28.3
2020-Aug-05 13:19 072 11 gusting 14 28.3
2020-Aug-05 13:14 075 12 gusting 14 28.3
2020-Aug-05 13:09 058 14 gusting 19 28.3
2020-Aug-05 13:04 059 16 gusting 19 28.3
2020-Aug-05 12:59 067 13 gusting 19 28.9
2020-Aug-05 12:54 090 11 gusting 14 28.9
2020-Aug-05 12:49 100 12 gusting 14 28.9
2020-Aug-05 12:44 088 12 gusting 16 28.9
2020-Aug-05 12:39 079 11 gusting 16 28.9
2020-Aug-05 12:34 072 11 gusting 19 28.9
2020-Aug-05 12:29 062 13 gusting 19 29.4
2020-Aug-05 12:24 067 13 gusting 17 29.4
2020-Aug-05 12:19 069 10 gusting 14 29.4
2020-Aug-05 12:14 039 6 gusting 13 30.0
2020-Aug-05 12:09 335 8 gusting 13 30.0
2020-Aug-05 12:04 298 11 gusting 17 30.0
2020-Aug-05 11:59 291 9 gusting 17 29.4
2020-Aug-05 11:54 135 6 gusting 10 29.4
2020-Aug-05 11:49 171 6 gusting 8 30.0
2020-Aug-05 11:44 079 6 gusting 9 30.0
2020-Aug-05 11:39 005 7 gusting 14 30.0
2020-Aug-05 11:34 330 12 gusting 17 29.4
2020-Aug-05 11:29 355 13 gusting 18 29.4
2020-Aug-05 11:24 010 11 gusting 18 30.0
2020-Aug-05 11:19 313 8 gusting 14 30.0
2020-Aug-05 11:14 011 10 gusting 14 30.0
2020-Aug-05 11:09 358 12 gusting 14 30.0
2020-Aug-05 11:04 342 11 gusting 13 30.0
2020-Aug-05 10:59 314 9 gusting 14 30.6
2020-Aug-05 10:54 108 8 gusting 14 30.0
2020-Aug-05 10:49 098 9 gusting 13 30.0
2020-Aug-05 10:44 086 8 gusting 13 30.0
2020-Aug-05 10:39 344 7 gusting 13 30.6
2020-Aug-05 10:34 356 10 gusting 14 30.6
2020-Aug-05 10:29 092 10 gusting 14 30.6
2020-Aug-05 10:24 122 6 gusting 13 30.6
2020-Aug-05 10:19 089 6 gusting 13 30.6
2020-Aug-05 10:14 046 11 gusting 16 30.0
2020-Aug-05 10:09 035 13 gusting 19 30.0
2020-Aug-05 10:04 057 13 gusting 19 30.0
2020-Aug-05 09:59 070 12 gusting 19 30.0
2020-Aug-05 09:54 095 9 gusting 17 30.0
2020-Aug-05 09:49 103 9 gusting 13 30.6
2020-Aug-05 09:44 105 7 gusting 13 30.6
2020-Aug-05 09:39 152 4 gusting 9 31.1
2020-Aug-05 09:34 117 5 gusting 9 30.6
2020-Aug-05 09:29 069 6 gusting 12 30.6
2020-Aug-05 09:24 054 6 gusting 12 30.6
2020-Aug-05 09:19 073 6 gusting 11 30.6
2020-Aug-05 09:14 081 6 gusting 9 30.0
2020-Aug-05 09:09 108 6 gusting 9 30.0
2020-Aug-05 09:04 114 6 gusting 8 30.0
2020-Aug-05 08:59 106 7 gusting 13 30.0
2020-Aug-05 08:54 086 12 gusting 20 29.4
2020-Aug-05 08:49 072 14 gusting 20 29.4
2020-Aug-05 08:44 076 13 gusting 18 29.4
2020-Aug-05 08:39 088 10 gusting 18 29.4
2020-Aug-05 08:34 082 7 gusting 16 28.9
2020-Aug-05 08:29 054 11 gusting 17 29.4
2020-Aug-05 08:24 051 13 gusting 17 28.9
2020-Aug-05 08:19 058 7 gusting 13 28.9
2020-Aug-05 08:14 087 6 gusting 13 28.9
2020-Aug-05 08:09 082 8 gusting 14 28.9
2020-Aug-05 08:04 066 6 gusting 14 28.9
2020-Aug-05 07:59 047 7 gusting 12 28.3
2020-Aug-05 07:54 055 8 gusting 12 28.3
2020-Aug-05 07:49 073 7 gusting 9 28.9
2020-Aug-05 07:44 096 9 gusting 13 28.9
2020-Aug-05 07:39 096 8 gusting 13 28.9
2020-Aug-05 07:34 067 6 gusting 13 28.9
2020-Aug-05 07:29 058 8 gusting 13 28.9
2020-Aug-05 07:24 065 9 gusting 13 28.9
2020-Aug-05 07:19 073 6 gusting 13 28.9
2020-Aug-05 07:14 051 5 gusting 9 28.9
2020-Aug-05 07:09 051 6 gusting 9 28.9
2020-Aug-05 07:04 056 6 gusting 9 28.3
2020-Aug-05 06:59 070 6 gusting 9 28.3
2020-Aug-05 06:54 053 8 gusting 10 28.3
2020-Aug-05 06:49 073 8 gusting 10 28.3
2020-Aug-05 06:44 092 6 gusting 9 28.3
2020-Aug-05 06:39 033 6 gusting 9 28.3
2020-Aug-05 06:34 036 6 gusting 14 28.3
2020-Aug-05 06:29 047 7 gusting 14 27.8
2020-Aug-05 06:24 052 8 gusting 11 27.8
2020-Aug-05 06:19 069 8 gusting 11 27.8
2020-Aug-05 06:14 057 6 gusting 9 28.3
2020-Aug-05 06:09 028 7 gusting 10 28.3
2020-Aug-05 06:04 029 7 gusting 10 28.3
2020-Aug-05 05:59 076 7 gusting 10 27.8
2020-Aug-05 05:54 096 8 gusting 11 27.8
2020-Aug-05 05:49 081 8 gusting 11 27.8
2020-Aug-05 05:44 048 7 gusting 9 27.8
2020-Aug-05 05:39 038 6 gusting 9 27.8
2020-Aug-05 05:34 055 6 gusting 8 27.8
2020-Aug-05 05:29 060 6 gusting 13 27.8
2020-Aug-05 05:24 059 6 gusting 13 27.8
2020-Aug-05 05:19 072 6 gusting 13 27.2
2020-Aug-05 05:14 059 6 gusting 9 27.2
2020-Aug-05 05:09 020 6 gusting 9 27.2
2020-Aug-05 05:04 268 4 gusting 6 26.7
2020-Aug-05 04:59 164 5 gusting 9 26.7
2020-Aug-05 04:54 092 5 gusting 9 26.7
2020-Aug-05 04:49 031 4 gusting 9 26.7
2020-Aug-05 04:44 009 5 gusting 9 26.7
2020-Aug-05 04:39 354 6 gusting 9 26.7
2020-Aug-05 04:34 019 4 gusting 9 26.7
2020-Aug-05 04:29 079 5 gusting 13 26.7
2020-Aug-05 04:24 087 5 gusting 13 26.1
2020-Aug-05 04:19 071 3 gusting 6 26.1
2020-Aug-05 04:14 043 4 gusting 6 26.1
2020-Aug-05 04:09 058 4 gusting 6 26.1
2020-Aug-05 04:04 083 4 gusting 6 26.1
2020-Aug-05 03:59 072 4 gusting 6 25.6
2020-Aug-05 03:54 015 5 gusting 6 25.6
2020-Aug-05 03:49 028 4 gusting 6 25.6
2020-Aug-05 03:44 049 3 gusting 6 25.6
2020-Aug-05 03:39 059 4 gusting 8 25.6
2020-Aug-05 03:34 065 5 gusting 8 25.6
2020-Aug-05 03:30 063 3 gusting 8 25.6
2020-Aug-05 03:24 072 3 gusting 6 25.6
2020-Aug-05 03:19 068 5 gusting 9 25.6
2020-Aug-05 03:14 043 5 gusting 9 25.6
2020-Aug-05 03:09 038 5 gusting 7 25.6
2020-Aug-05 03:04 016 6 gusting 7 25.6
2020-Aug-05 02:59 344 3 gusting 6 25.6
2020-Aug-05 02:54 056 1 gusting 3 25.6
2020-Aug-05 02:49 217 1 gusting 3 25.6
2020-Aug-05 02:44 261 1 gusting 3 25.0
2020-Aug-05 02:39 152 1 gusting 3 25.0
2020-Aug-05 02:34 145 1 gusting 3 25.0
2020-Aug-05 02:29 117 1 gusting 3 25.0
2020-Aug-05 02:24 101 1 gusting 3 25.0
2020-Aug-05 02:19 205 0 gusting 1 25.0
2020-Aug-05 02:14 130 1 gusting 3 25.6
2020-Aug-05 02:09 103 1 gusting 3 25.6
2020-Aug-05 02:04 133 1 gusting 3 25.6
2020-Aug-05 01:59 136 1 gusting 2 25.6
2020-Aug-05 01:55 105 2 gusting 3 25.6
2020-Aug-05 01:49 096 2 gusting 3 25.6
2020-Aug-05 01:44 147 1 gusting 3 25.6
2020-Aug-05 01:39 135 1 gusting 3 25.6
2020-Aug-05 01:34 095 1 gusting 6 26.1
2020-Aug-05 01:29 056 2 gusting 6 26.1
2020-Aug-05 01:24 070 2 gusting 6 25.6
2020-Aug-05 01:19 051 2 gusting 3 26.1
2020-Aug-05 01:14 046 3 gusting 3 26.1
2020-Aug-05 01:09 316 2 gusting 3 25.6
2020-Aug-05 01:04 303 1 gusting 3 25.6
2020-Aug-05 00:59 270 0 gusting 2 25.0
2020-Aug-05 00:54 240 0 gusting 1 25.6
2020-Aug-05 00:49 254 0 gusting 1 26.1
2020-Aug-05 00:44 301 1 gusting 3 26.1
2020-Aug-05 00:39 303 1 gusting 3 26.7
2020-Aug-05 00:34 014 2 gusting 7 26.7
2020-Aug-05 00:29 016 5 gusting 7 26.7
2020-Aug-05 00:24 025 5 gusting 7 26.7
2020-Aug-05 00:19 053 4 gusting 7 26.7
2020-Aug-05 00:14 048 4 gusting 7 26.7
2020-Aug-05 00:09 072 2 gusting 4 26.7
2020-Aug-05 00:04 153 2 gusting 4 26.7
2020-Aug-05 00:00 325 2 gusting 4 26.7
2020-Aug-04 23:55 335 1 gusting 3 26.7
2020-Aug-04 23:49 005 2 gusting 6 26.7
2020-Aug-04 23:44 012 2 gusting 6 26.1
2020-Aug-04 23:39 053 2 gusting 3 25.6
2020-Aug-04 23:34 102 1 gusting 3 25.0
2020-Aug-04 23:29 211 1 gusting 3 25.6
2020-Aug-04 23:25 249 0 gusting 1 25.0
2020-Aug-04 23:19 272 0 gusting 1 23.9
2020-Aug-04 23:14 228 0 gusting 1 23.3
2020-Aug-04 23:09 357 1 gusting 1 23.3
2020-Aug-04 23:04 357 1 gusting 1 22.8
2020-Aug-04 22:59 193 0 gusting 1 22.8
2020-Aug-04 22:55 246 0 gusting 1 22.8
2020-Aug-04 22:49 311 0 gusting 1 22.8
2020-Aug-04 22:45 262 0 gusting 2 22.8
2020-Aug-04 22:39 252 1 gusting 2 22.2
2020-Aug-04 22:34 257 0 gusting 2 22.2
2020-Aug-04 22:29 251 0 gusting 1 22.8
2020-Aug-04 22:24 233 0 gusting 1 22.8
2020-Aug-04 22:19 241 23.3
2020-Aug-04 22:14 258 0 gusting 2 23.3
2020-Aug-04 22:09 264 1 gusting 2 23.3
2020-Aug-04 22:04 268 1 gusting 1 23.3
2020-Aug-04 21:59 263 0 gusting 1 23.3
2020-Aug-04 21:54 254 0 gusting 1 23.3
2020-Aug-04 21:49 265 0 gusting 1 22.8
2020-Aug-04 21:44 257 1 gusting 1 22.8
2020-Aug-04 21:40 256 0 gusting 1 23.3
2020-Aug-04 21:34 253 0 gusting 1 22.8
2020-Aug-04 21:29 233 0 gusting 1 23.3
2020-Aug-04 21:24 260 0 gusting 1 22.8
2020-Aug-04 21:19 261 0 gusting 1 22.8
2020-Aug-04 21:14 257 22.8
2020-Aug-04 21:10 278 0 gusting 2 22.8
2020-Aug-04 21:04 243 0 gusting 2 23.3
2020-Aug-04 21:00 256 0 gusting 1 23.9
2020-Aug-04 20:54 290 0 gusting 1 23.3
2020-Aug-04 20:49 281 0 gusting 1 23.3
2020-Aug-04 20:44 273 23.3
2020-Aug-04 20:39 229 0 gusting 1 23.3
2020-Aug-04 20:34 231 0 gusting 1 23.3
2020-Aug-04 20:29 189 1 gusting 1 23.9
2020-Aug-04 20:24 120 0 gusting 1 23.9
2020-Aug-04 20:19 248 23.3
2020-Aug-04 20:14 235 23.9
2020-Aug-04 20:09 239 0 gusting 1 24.4
2020-Aug-04 20:04 261 0 gusting 1 24.4
2020-Aug-04 19:59 270 23.9
2020-Aug-04 19:55 24.4
2020-Aug-04 19:49 24.4
2020-Aug-04 19:44 262 25.0
2020-Aug-04 19:39 250 0 gusting 1 25.0
2020-Aug-04 19:35 247 0 gusting 1 25.6
2020-Aug-04 19:30 264 0 gusting 2 26.1
2020-Aug-04 19:24 270 2 gusting 3 26.1
2020-Aug-04 19:19 267 2 gusting 3 26.1
2020-Aug-04 19:14 271 1 gusting 3 26.7
2020-Aug-04 19:10 339 1 gusting 2 26.7
2020-Aug-04 19:05 305 1 gusting 3 25.6
2020-Aug-04 19:00 290 1 gusting 3 26.1
2020-Aug-04 18:54 249 0 gusting 2 26.1
2020-Aug-04 18:49 284 0 gusting 1 26.7
2020-Aug-04 18:44 311 0 gusting 1 26.7
2020-Aug-04 18:39 256 0 gusting 1 26.7
2020-Aug-04 18:34 232 1 gusting 1 26.7
2020-Aug-04 18:29 231 0 gusting 1 27.2
2020-Aug-04 18:24 119 0 gusting 3 27.8
2020-Aug-04 18:19 101 1 gusting 3 27.8
2020-Aug-04 18:15 113 2 gusting 3 27.8
2020-Aug-04 18:09 119 2 gusting 3 27.8
2020-Aug-04 18:04 091 2 gusting 4 27.8
2020-Aug-04 17:59 086 3 gusting 4 27.8
2020-Aug-04 17:54 085 4 gusting 6 27.8
2020-Aug-04 17:49 079 4 gusting 6 27.8
2020-Aug-04 17:44 082 3 gusting 6 27.8
2020-Aug-04 17:39 079 3 gusting 6 27.8
2020-Aug-04 17:35 079 2 gusting 5 27.8
2020-Aug-04 17:30 080 2 gusting 4 28.3
2020-Aug-04 17:24 079 3 gusting 5 28.3
2020-Aug-04 17:19 071 4 gusting 5 28.3
2020-Aug-04 17:14 053 4 gusting 6 28.3
2020-Aug-04 17:09 057 4 gusting 6 28.3
2020-Aug-04 17:05 041 3 gusting 5 27.8
2020-Aug-04 16:59 026 2 gusting 5 27.8
2020-Aug-04 16:55 096 1 gusting 3 28.3
2020-Aug-04 16:50 122 0 gusting 2 28.3
2020-Aug-04 16:44 145 1 gusting 5 28.3
2020-Aug-04 16:40 064 2 gusting 5 28.3
2020-Aug-04 16:34 068 3 gusting 4 28.3
2020-Aug-04 16:29 105 2 gusting 4 28.3
2020-Aug-04 16:24 109 2 gusting 4 28.3
2020-Aug-04 16:19 112 2 gusting 4 28.3
2020-Aug-04 16:15 091 1 gusting 4 28.9
2020-Aug-04 16:09 094 2 gusting 6 28.9
2020-Aug-04 16:04 101 4 gusting 6 28.9
2020-Aug-04 15:59 081 4 gusting 6 28.9
2020-Aug-04 15:54 049 3 gusting 5 28.9
2020-Aug-04 15:50 025 2 gusting 5 28.9
2020-Aug-04 15:44 072 2 gusting 4 28.9
2020-Aug-04 15:40 077 3 gusting 5 28.9
2020-Aug-04 15:35 090 2 gusting 5 28.9
2020-Aug-04 15:29 074 3 gusting 6 28.9
2020-Aug-04 15:24 045 3 gusting 6 28.9
2020-Aug-04 15:19 052 3 gusting 5 29.4
2020-Aug-04 15:15 063 3 gusting 6 28.9
2020-Aug-04 15:09 073 4 gusting 7 28.9
2020-Aug-04 15:05 037 5 gusting 9 28.9
2020-Aug-04 15:00 029 5 gusting 9 28.9
2020-Aug-04 14:55 011 5 gusting 9 29.4
2020-Aug-04 14:49 333 3 gusting 9 29.4
2020-Aug-04 14:44 350 6 gusting 9 29.4
2020-Aug-04 14:39 353 6 gusting 9 29.4
2020-Aug-04 14:34 354 6 gusting 9 29.4
2020-Aug-04 14:29 002 6 gusting 10 29.4
2020-Aug-04 14:24 024 6 gusting 10 29.4
2020-Aug-04 14:19 357 6 gusting 11 29.4
2020-Aug-04 14:14 040 6 gusting 11 29.4
2020-Aug-04 14:09 357 6 gusting 11 29.4
2020-Aug-04 14:05 331 6 gusting 7 29.4
2020-Aug-04 14:00 001 7 gusting 11 29.4
2020-Aug-04 13:54 004 8 gusting 11 29.4
2020-Aug-04 13:49 327 8 gusting 11 29.4
2020-Aug-04 13:44 004 7 gusting 11 29.4
2020-Aug-04 13:39 040 7 gusting 10 29.4
2020-Aug-04 13:35 031 7 gusting 12 29.4
2020-Aug-04 13:29 039 8 gusting 12 29.4
2020-Aug-04 13:25 029 8 gusting 13 29.4
2020-Aug-04 13:20 038 8 gusting 13 29.4
2020-Aug-04 13:14 047 8 gusting 10 29.4
2020-Aug-04 13:10 050 7 gusting 10 29.4
2020-Aug-04 13:04 066 6 gusting 9 29.4
2020-Aug-04 12:59 034 6 gusting 9 30.0
2020-Aug-04 12:54 338 6 gusting 10 30.0
2020-Aug-04 12:49 251 6 gusting 10 30.0
2020-Aug-04 12:44 295 7 gusting 9 30.6
2020-Aug-04 12:39 314 7 gusting 10 30.0
2020-Aug-04 12:34 009 6 gusting 10 30.0
2020-Aug-04 12:30 041 6 gusting 9 30.0
2020-Aug-04 12:24 030 6 gusting 9 30.0
2020-Aug-04 12:19 344 7 gusting 13 30.0
2020-Aug-04 12:14 321 9 gusting 13 30.0
2020-Aug-04 12:10 321 7 gusting 13 30.0
2020-Aug-04 12:04 344 5 gusting 6 30.0
2020-Aug-04 11:59 315 6 gusting 10 30.0
2020-Aug-04 11:55 321 6 gusting 10 30.0
2020-Aug-04 11:44 320 7 gusting 11 30.0
2020-Aug-04 11:39 325 7 gusting 11 30.0
2020-Aug-04 11:35 314 6 gusting 10 30.0
2020-Aug-04 11:29 321 6 gusting 9 30.0
2020-Aug-04 11:24 348 4 gusting 6 30.6
2020-Aug-04 11:19 070 4 gusting 6 30.0
2020-Aug-04 11:15 090 5 gusting 7 30.0
2020-Aug-04 11:09 308 6 gusting 7 30.0
2020-Aug-04 11:05 308 7 gusting 8 30.0
2020-Aug-04 10:59 313 6 gusting 9 29.4
2020-Aug-04 10:54 316 6 gusting 9 29.4
2020-Aug-04 10:49 331 6 gusting 9 29.4
2020-Aug-04 10:44 354 6 gusting 11 29.4
2020-Aug-04 10:39 295 6 gusting 11 29.4
2020-Aug-04 10:34 303 6 gusting 10 29.4
2020-Aug-04 10:29 299 6 gusting 10 29.4